createdAt,value
2019-04-04T00:01:19.163Z,75.10
2019-04-04T00:02:24.101Z,75.70
2019-04-04T00:03:28.401Z,75.50
2019-04-04T00:04:32.681Z,75.40
2019-04-04T00:05:37.003Z,74.50
2019-04-04T00:06:41.316Z,75.20
2019-04-04T00:07:45.670Z,75.00
2019-04-04T00:08:50.123Z,75.10
2019-04-04T00:09:54.544Z,75.60
2019-04-04T00:10:58.837Z,75.00
2019-04-04T00:12:03.159Z,74.60
2019-04-04T00:13:09.110Z,74.40
2019-04-04T00:14:13.659Z,74.40
2019-04-04T00:15:17.938Z,75.10
2019-04-04T00:16:22.325Z,74.50
2019-04-04T00:17:26.673Z,74.70
2019-04-04T00:18:30.968Z,75.00
2019-04-04T00:19:35.230Z,75.20
2019-04-04T00:20:39.629Z,74.90
2019-04-04T00:21:43.857Z,74.80
2019-04-04T00:22:48.187Z,74.70
2019-04-04T00:23:52.393Z,74.90
2019-04-04T00:24:56.787Z,74.90
2019-04-04T00:26:01.149Z,75.10
2019-04-04T00:27:05.595Z,74.80
2019-04-04T00:28:09.904Z,74.80
2019-04-04T00:29:16.966Z,74.50
2019-04-04T00:30:20.264Z,75.00
2019-04-04T00:31:24.734Z,73.90
2019-04-04T00:32:28.945Z,74.10
2019-04-04T00:33:33.226Z,74.50
2019-04-04T00:34:37.515Z,74.60
2019-04-04T00:35:41.903Z,74.20
2019-04-04T00:36:46.190Z,74.70
2019-04-04T00:37:50.621Z,74.70
2019-04-04T00:38:54.978Z,74.50
2019-04-04T00:39:59.680Z,75.00
2019-04-04T00:41:04.098Z,74.30
2019-04-04T00:42:08.834Z,75.30
2019-04-04T00:43:13.191Z,76.20
2019-04-04T00:44:17.885Z,76.30
2019-04-04T00:45:22.209Z,75.30
2019-04-04T00:46:26.541Z,75.30
2019-04-04T00:47:32.414Z,76.00
2019-04-04T00:48:36.977Z,76.20
2019-04-04T00:49:41.283Z,76.20
2019-04-04T00:50:45.664Z,74.80
2019-04-04T00:51:49.875Z,75.90
2019-04-04T00:52:54.211Z,75.90
2019-04-04T00:53:58.491Z,76.00
2019-04-04T00:55:02.754Z,76.00
2019-04-04T00:56:07.157Z,76.00
2019-04-04T00:57:11.551Z,76.10
2019-04-04T00:58:15.973Z,76.20
2019-04-04T00:59:22.783Z,76.20
2019-04-04T01:00:26.317Z,76.30
2019-04-04T01:01:30.527Z,76.40
2019-04-04T01:02:34.763Z,76.20
2019-04-04T01:03:39.222Z,76.20
2019-04-04T01:04:43.902Z,76.40
2019-04-04T01:05:48.211Z,76.30
2019-04-04T01:06:52.415Z,76.20
2019-04-04T01:07:56.727Z,76.20
2019-04-04T01:09:01.138Z,76.20
2019-04-04T01:10:06.787Z,76.10
2019-04-04T01:11:11.154Z,76.10
2019-04-04T01:12:15.415Z,76.20
2019-04-04T01:13:21.204Z,76.20
2019-04-04T01:14:28.892Z,76.00
2019-04-04T01:15:31.895Z,76.30
2019-04-04T01:16:36.208Z,76.40
2019-04-04T01:17:40.532Z,76.50
2019-04-04T01:18:44.877Z,76.70
2019-04-04T01:19:49.792Z,77.10
2019-04-04T01:20:54.189Z,78.00
2019-04-04T01:21:58.435Z,77.00
2019-04-04T01:23:02.792Z,77.20
2019-04-04T01:24:07.163Z,77.10
2019-04-04T01:25:11.531Z,77.20
2019-04-04T01:26:15.954Z,77.20
2019-04-04T01:27:20.169Z,77.40
2019-04-04T01:28:24.554Z,77.30
2019-04-04T01:29:28.999Z,76.90
2019-04-04T01:30:33.357Z,77.00
2019-04-04T01:31:37.608Z,76.90
2019-04-04T01:32:41.785Z,77.70
2019-04-04T01:33:46.075Z,77.20
2019-04-04T01:34:52.183Z,77.90
2019-04-04T01:35:56.462Z,77.70
2019-04-04T01:37:00.870Z,77.40
2019-04-04T01:38:05.307Z,77.20
2019-04-04T01:39:09.919Z,77.70
2019-04-04T01:40:14.321Z,77.70
2019-04-04T01:41:18.519Z,77.90
2019-04-04T01:42:22.860Z,78.00
2019-04-04T01:43:27.149Z,77.90
2019-04-04T01:44:31.297Z,77.70
2019-04-04T01:45:35.814Z,77.70
2019-04-04T01:46:40.298Z,77.70
2019-04-04T01:47:47.660Z,78.50
2019-04-04T01:48:50.911Z,77.30
2019-04-04T01:49:55.238Z,77.30
2019-04-04T01:50:59.542Z,77.40
2019-04-04T01:52:03.941Z,77.10
2019-04-04T01:53:08.249Z,77.30
2019-04-04T01:54:12.631Z,77.60
2019-04-04T01:55:16.861Z,77.70
2019-04-04T01:56:20.999Z,77.50
2019-04-04T01:57:25.284Z,77.20
2019-04-04T01:58:29.500Z,77.70
2019-04-04T01:59:33.968Z,77.90
2019-04-04T02:00:38.271Z,78.50
2019-04-04T02:01:42.402Z,78.00
2019-04-04T02:02:46.697Z,78.50
2019-04-04T02:03:51.836Z,78.00
2019-04-04T02:04:56.915Z,78.10
2019-04-04T02:06:01.241Z,78.60
2019-04-04T02:07:05.499Z,79.10
2019-04-04T02:08:09.801Z,79.10
2019-04-04T02:09:14.157Z,79.00
2019-04-04T02:10:18.374Z,79.00
2019-04-04T02:11:22.710Z,79.20
2019-04-04T02:12:27.095Z,78.70
2019-04-04T02:13:31.347Z,78.50
2019-04-04T02:14:35.729Z,78.50
2019-04-04T02:15:40.143Z,78.10
2019-04-04T02:16:47.515Z,78.50
2019-04-04T02:17:51.047Z,78.40
2019-04-04T02:18:56.427Z,78.00
2019-04-04T02:20:00.765Z,78.10
2019-04-04T02:21:05.234Z,78.40
2019-04-04T02:22:09.373Z,78.90
2019-04-04T02:23:13.737Z,79.30
2019-04-04T02:24:18.103Z,79.30
2019-04-04T02:25:22.298Z,78.70
2019-04-04T02:26:26.481Z,78.00
2019-04-04T02:27:30.771Z,77.90
2019-04-04T02:28:35.033Z,78.00
2019-04-04T02:29:39.941Z,78.00
2019-04-04T02:30:48.088Z,78.50
2019-04-04T02:31:54.577Z,78.30
2019-04-04T02:33:00.435Z,78.80
2019-04-04T02:34:06.205Z,78.60
2019-04-04T02:35:11.772Z,78.90
2019-04-04T02:36:16.838Z,78.50
2019-04-04T02:37:22.102Z,78.50
2019-04-04T02:38:28.018Z,78.60
2019-04-04T02:39:35.265Z,78.80
2019-04-04T02:40:41.912Z,79.20
2019-04-04T02:41:47.672Z,79.30
2019-04-04T02:42:54.159Z,79.30
2019-04-04T02:43:59.354Z,79.40
2019-04-04T02:45:05.657Z,79.70
2019-04-04T02:46:11.568Z,79.40
2019-04-04T02:47:17.216Z,78.80
2019-04-04T02:48:23.739Z,78.60
2019-04-04T02:49:29.177Z,79.20
2019-04-04T02:50:35.681Z,78.50
2019-04-04T02:51:41.191Z,78.80
2019-04-04T02:52:46.288Z,79.30
2019-04-04T02:53:52.881Z,79.40
2019-04-04T02:54:58.248Z,79.40
2019-04-04T02:56:03.680Z,78.90
2019-04-04T02:57:09.268Z,78.80
2019-04-04T02:58:15.219Z,78.90
2019-04-04T02:59:21.556Z,79.30
2019-04-04T03:00:26.967Z,79.30
2019-04-04T03:01:33.169Z,79.40
2019-04-04T03:02:37.695Z,79.50
2019-04-04T03:03:42.346Z,79.70
2019-04-04T03:04:47.180Z,79.60
2019-04-04T03:05:52.348Z,79.80
2019-04-04T03:06:58.539Z,80.20
2019-04-04T03:08:04.491Z,81.10
2019-04-04T03:09:10.245Z,80.20
2019-04-04T03:10:16.546Z,80.50
2019-04-04T03:11:22.161Z,80.50
2019-04-04T03:12:27.509Z,80.40
2019-04-04T03:13:32.346Z,80.90
2019-04-04T03:14:37.608Z,80.60
2019-04-04T03:15:44.701Z,80.80
2019-04-04T03:16:48.016Z,80.70
2019-04-04T03:17:52.225Z,81.30
2019-04-04T03:18:56.400Z,81.50
2019-04-04T03:20:00.599Z,80.90
2019-04-04T03:21:04.869Z,80.80
2019-04-04T03:22:09.233Z,81.00
2019-04-04T03:23:13.450Z,80.50
2019-04-04T03:24:17.658Z,80.40
2019-04-04T03:25:21.986Z,80.50
2019-04-04T03:26:26.395Z,80.90
2019-04-04T03:27:30.760Z,80.80
2019-04-04T03:28:35.024Z,81.10
2019-04-04T03:29:39.326Z,80.80
2019-04-04T03:30:52.645Z,80.80
2019-04-04T03:31:49.506Z,81.00
2019-04-04T03:32:54.850Z,81.30
2019-04-04T03:34:08.874Z,81.30
2019-04-04T03:35:06.354Z,81.80
2019-04-04T03:36:10.519Z,81.50
2019-04-04T03:37:14.788Z,80.90
2019-04-04T03:38:19.046Z,80.80
2019-04-04T03:39:23.445Z,81.10
2019-04-04T03:40:27.834Z,80.80
2019-04-04T03:41:35.844Z,80.90
2019-04-04T03:42:38.279Z,81.20
2019-04-04T03:43:42.587Z,81.50
2019-04-04T03:44:46.830Z,81.80
2019-04-04T03:45:51.092Z,81.60
2019-04-04T03:46:55.401Z,81.60
2019-04-04T03:47:59.709Z,81.10
2019-04-04T03:49:03.966Z,81.10
2019-04-04T03:50:08.484Z,81.50
2019-04-04T03:51:12.924Z,81.40
2019-04-04T03:52:17.338Z,81.10
2019-04-04T03:53:22.359Z,81.60
2019-04-04T03:54:27.797Z,81.70
2019-04-04T03:55:32.093Z,82.00
2019-04-04T03:56:39.358Z,81.50
2019-04-04T03:57:42.446Z,81.60
2019-04-04T03:58:46.761Z,81.70
2019-04-04T03:59:51.493Z,82.20
2019-04-04T04:00:55.954Z,81.40
2019-04-04T04:02:00.207Z,81.70
2019-04-04T04:03:04.818Z,81.70
2019-04-04T04:04:09.280Z,82.30
2019-04-04T04:05:27.459Z,82.10
2019-04-04T04:06:31.699Z,82.30
2019-04-04T04:07:36.083Z,83.10
2019-04-04T04:08:40.512Z,82.40
2019-04-04T04:09:45.177Z,82.60
2019-04-04T04:10:49.340Z,82.80
2019-04-04T04:11:53.525Z,82.50
2019-04-04T04:12:57.849Z,83.10
2019-04-04T04:14:02.187Z,82.30
2019-04-04T04:15:06.544Z,83.10
2019-04-04T04:16:10.779Z,82.30
2019-04-04T04:17:15.077Z,82.10
2019-04-04T04:18:21.311Z,83.10
2019-04-04T04:19:30.058Z,82.20
2019-04-04T04:20:36.397Z,83.40
2019-04-04T04:21:37.603Z,82.30
2019-04-04T04:22:41.921Z,82.20
2019-04-04T04:23:49.682Z,82.90
2019-04-04T04:24:52.232Z,83.40
2019-04-04T04:25:56.533Z,83.90
2019-04-04T04:27:00.825Z,83.50
2019-04-04T04:28:05.003Z,83.20
2019-04-04T04:29:09.347Z,83.00
2019-04-04T04:30:13.811Z,83.00
2019-04-04T04:31:18.041Z,82.70
2019-04-04T04:32:22.811Z,83.00
2019-04-04T04:33:29.300Z,82.70
2019-04-04T04:34:34.236Z,82.50
2019-04-04T04:35:41.988Z,83.00
2019-04-04T04:36:47.728Z,83.40
2019-04-04T04:37:53.466Z,83.40
2019-04-04T04:38:59.871Z,83.10
2019-04-04T04:40:03.107Z,83.10
2019-04-04T04:41:07.417Z,83.10
2019-04-04T04:42:11.748Z,83.30
2019-04-04T04:43:16.085Z,84.10
2019-04-04T04:44:20.698Z,84.20
2019-04-04T04:45:24.987Z,84.40
2019-04-04T04:46:29.324Z,84.20
2019-04-04T04:47:33.529Z,83.90
2019-04-04T04:48:37.839Z,83.90
2019-04-04T04:49:42.193Z,84.20
2019-04-04T04:50:46.469Z,83.40
2019-04-04T04:51:50.777Z,83.50
2019-04-04T04:52:55.120Z,83.70
2019-04-04T04:53:59.436Z,83.80
2019-04-04T04:55:03.716Z,83.80
2019-04-04T04:56:08.116Z,85.00
2019-04-04T04:57:28.221Z,84.00
2019-04-04T04:58:18.226Z,84.80
2019-04-04T04:59:22.460Z,83.80
2019-04-04T05:00:27.935Z,83.60
2019-04-04T05:01:32.374Z,83.50
2019-04-04T05:02:36.711Z,84.20
2019-04-04T05:03:41.089Z,84.00
2019-04-04T05:04:45.241Z,84.70
2019-04-04T05:05:49.548Z,84.00
2019-04-04T05:06:54.079Z,84.40
2019-04-04T05:07:58.283Z,84.40
2019-04-04T05:09:02.652Z,84.80
2019-04-04T05:10:07.323Z,84.00
2019-04-04T05:11:14.311Z,83.90
2019-04-04T05:12:17.703Z,84.20
2019-04-04T05:13:24.571Z,84.50
2019-04-04T05:14:29.780Z,84.90
2019-04-04T05:15:34.308Z,84.90
2019-04-04T05:16:38.728Z,85.10
2019-04-04T05:17:42.941Z,85.00
2019-04-04T05:18:48.214Z,84.90
2019-04-04T05:19:52.583Z,85.00
2019-04-04T05:20:57.508Z,84.30
2019-04-04T05:22:02.064Z,84.50
2019-04-04T05:23:06.351Z,85.00
2019-04-04T05:24:10.720Z,84.90
2019-04-04T05:25:14.945Z,84.80
2019-04-04T05:26:19.329Z,85.10
2019-04-04T05:27:23.702Z,85.60
2019-04-04T05:28:27.963Z,85.50
2019-04-04T05:29:32.236Z,85.10
2019-04-04T05:30:36.536Z,85.60
2019-04-04T05:31:40.913Z,85.70
2019-04-04T05:32:45.158Z,85.20
2019-04-04T05:33:49.564Z,85.10
2019-04-04T05:34:53.955Z,85.10
2019-04-04T05:35:58.333Z,85.10
2019-04-04T05:37:02.629Z,86.20
2019-04-04T05:38:07.824Z,86.30
2019-04-04T05:39:12.273Z,86.00
2019-04-04T05:40:16.569Z,85.70
2019-04-04T05:41:20.959Z,86.00
2019-04-04T05:42:25.212Z,85.70
2019-04-04T05:43:29.630Z,85.50
2019-04-04T05:44:34.325Z,85.80
2019-04-04T05:45:38.925Z,85.80
2019-04-04T05:46:43.121Z,86.00
2019-04-04T05:47:47.295Z,86.20
2019-04-04T05:48:51.481Z,86.50
2019-04-04T05:49:55.857Z,86.50
2019-04-04T05:51:00.072Z,86.40
2019-04-04T05:52:04.234Z,86.90
2019-04-04T05:53:08.425Z,87.40
2019-04-04T05:54:12.655Z,86.50
2019-04-04T05:55:17.020Z,86.40
2019-04-04T05:56:24.120Z,86.10
2019-04-04T05:57:27.382Z,86.00
2019-04-04T05:58:31.766Z,86.40
2019-04-04T05:59:36.168Z,86.50
2019-04-04T06:00:42.049Z,86.90
2019-04-04T06:01:48.085Z,86.90
2019-04-04T06:02:52.343Z,87.00
2019-04-04T06:03:56.814Z,87.50
2019-04-04T06:05:01.241Z,87.60
2019-04-04T06:06:05.782Z,87.20
2019-04-04T06:07:10.068Z,86.60
2019-04-04T06:08:14.380Z,86.70
2019-04-04T06:09:18.747Z,86.40
2019-04-04T06:10:22.984Z,86.00
2019-04-04T06:11:27.230Z,85.70
2019-04-04T06:12:31.631Z,86.00
2019-04-04T06:13:35.960Z,85.90
2019-04-04T06:14:40.172Z,86.30
2019-04-04T06:15:44.351Z,86.30
2019-04-04T06:16:48.563Z,86.90
2019-04-04T06:17:53.004Z,87.40
2019-04-04T06:18:57.637Z,87.10
2019-04-04T06:20:02.099Z,87.50
2019-04-04T06:21:06.287Z,87.40
2019-04-04T06:22:10.634Z,87.80
2019-04-04T06:23:14.838Z,87.80
2019-04-04T06:24:19.195Z,88.30
2019-04-04T06:25:23.518Z,88.40
2019-04-04T06:26:27.782Z,87.30
2019-04-04T06:27:32.046Z,87.40
2019-04-04T06:28:36.389Z,87.70
2019-04-04T06:29:40.930Z,86.70
2019-04-04T06:30:45.158Z,86.50
2019-04-04T06:31:49.377Z,86.60
2019-04-04T06:32:53.775Z,86.30
2019-04-04T06:33:58.013Z,86.20
2019-04-04T06:35:02.414Z,85.80
2019-04-04T06:36:06.687Z,86.30
2019-04-04T06:37:11.051Z,86.90
2019-04-04T06:38:15.283Z,88.10
2019-04-04T06:39:19.585Z,88.40
2019-04-04T06:40:23.785Z,88.10
2019-04-04T06:41:28.477Z,88.30
2019-04-04T06:42:36.000Z,89.00
2019-04-04T06:43:41.351Z,88.10
2019-04-04T06:44:45.005Z,88.20
2019-04-04T06:45:49.282Z,88.20
2019-04-04T06:46:54.202Z,87.10
2019-04-04T06:47:58.858Z,86.80
2019-04-04T06:49:04.359Z,86.00
2019-04-04T06:50:09.406Z,85.70
2019-04-04T06:51:14.339Z,85.70
2019-04-04T06:52:19.482Z,84.60
2019-04-04T06:53:23.850Z,84.50
2019-04-04T06:54:28.048Z,85.80
2019-04-04T06:55:32.465Z,85.00
2019-04-04T06:56:37.035Z,85.00
2019-04-04T06:57:41.341Z,84.60
2019-04-04T06:58:45.532Z,84.50
2019-04-04T06:59:51.219Z,84.10
2019-04-04T07:00:55.793Z,83.90
2019-04-04T07:02:00.116Z,84.50
2019-04-04T07:03:04.451Z,84.10
2019-04-04T07:04:08.836Z,85.00
2019-04-04T07:05:13.606Z,85.00
2019-04-04T07:06:17.909Z,84.70
2019-04-04T07:07:22.107Z,85.80
2019-04-04T07:08:26.387Z,85.40
2019-04-04T07:09:30.703Z,84.30
2019-04-04T07:10:34.891Z,83.10
2019-04-04T07:11:39.167Z,83.10
2019-04-04T07:12:43.596Z,83.00
2019-04-04T07:13:47.919Z,83.10
2019-04-04T07:14:52.614Z,83.00
2019-04-04T07:16:06.299Z,82.10
2019-04-04T07:17:03.042Z,82.60
2019-04-04T07:18:07.507Z,83.20
2019-04-04T07:19:14.326Z,83.10
2019-04-04T07:20:17.979Z,81.90
2019-04-04T07:21:22.201Z,82.00
2019-04-04T07:22:26.707Z,82.50
2019-04-04T07:23:30.941Z,83.30
2019-04-04T07:24:35.172Z,83.10
2019-04-04T07:25:39.810Z,83.30
2019-04-04T07:26:45.492Z,83.10
2019-04-04T07:27:50.602Z,82.90
2019-04-04T07:28:54.953Z,82.30
2019-04-04T07:29:59.361Z,82.40
2019-04-04T07:31:03.684Z,83.00
2019-04-04T07:32:09.475Z,83.40
2019-04-04T07:33:13.905Z,82.20
2019-04-04T07:34:18.153Z,80.00
2019-04-04T07:35:22.553Z,80.10
2019-04-04T07:36:26.737Z,79.80
2019-04-04T07:37:30.942Z,79.60
2019-04-04T07:38:35.205Z,78.90
2019-04-04T07:39:39.590Z,78.80
2019-04-04T07:40:43.965Z,78.10
2019-04-04T07:41:48.351Z,78.90
2019-04-04T07:42:52.561Z,79.60
2019-04-04T07:43:58.599Z,79.80
2019-04-04T07:45:02.975Z,78.50
2019-04-04T07:46:16.311Z,78.90
2019-04-04T07:47:15.910Z,78.40
2019-04-04T07:48:19.457Z,77.00
2019-04-04T07:49:23.942Z,76.60
2019-04-04T07:50:28.471Z,77.10
2019-04-04T07:51:33.053Z,77.50
2019-04-04T07:52:37.339Z,76.00
2019-04-04T07:53:41.501Z,75.70
2019-04-04T07:54:45.979Z,75.80
2019-04-04T07:55:50.175Z,75.30
2019-04-04T07:56:54.487Z,76.70
2019-04-04T07:57:58.827Z,76.70
2019-04-04T07:59:03.196Z,76.30
2019-04-04T08:00:09.003Z,76.90
2019-04-04T08:01:13.204Z,76.80
2019-04-04T08:02:17.536Z,76.70
2019-04-04T08:03:21.778Z,76.70
2019-04-04T08:04:26.115Z,77.40
2019-04-04T08:05:30.449Z,77.10
2019-04-04T08:06:34.745Z,76.80
2019-04-04T08:07:39.125Z,75.60
2019-04-04T08:08:43.481Z,75.60
2019-04-04T08:09:47.875Z,74.00
2019-04-04T08:10:52.095Z,74.00
2019-04-04T08:11:56.390Z,74.40
2019-04-04T08:13:00.613Z,73.90
2019-04-04T08:14:05.069Z,73.40
2019-04-04T08:15:09.721Z,72.60
2019-04-04T08:16:14.041Z,71.50
2019-04-04T08:17:19.122Z,70.90
2019-04-04T08:18:23.450Z,70.70
2019-04-04T08:19:28.036Z,71.00
2019-04-04T08:20:32.243Z,70.90
2019-04-04T08:21:36.433Z,70.30
2019-04-04T08:22:40.780Z,70.40
2019-04-04T08:23:45.071Z,71.70
2019-04-04T08:24:49.487Z,72.50
2019-04-04T08:25:53.681Z,72.30
2019-04-04T08:26:58.097Z,71.00
2019-04-04T08:28:02.365Z,71.10
2019-04-04T08:29:06.727Z,71.30
2019-04-04T08:30:11.175Z,72.00
2019-04-04T08:31:15.409Z,73.00
2019-04-04T08:32:19.803Z,71.70
2019-04-04T08:33:24.172Z,70.90
2019-04-04T08:34:28.494Z,68.80
2019-04-04T08:35:32.881Z,69.50
2019-04-04T08:36:37.092Z,69.90
2019-04-04T08:37:41.484Z,69.40
2019-04-04T08:38:45.762Z,67.90
2019-04-04T08:39:50.036Z,67.80
2019-04-04T08:40:54.238Z,68.90
2019-04-04T08:41:58.568Z,66.80
2019-04-04T08:43:02.815Z,67.40
2019-04-04T08:44:07.433Z,67.60
2019-04-04T08:45:11.976Z,68.00
2019-04-04T08:46:16.319Z,67.90
2019-04-04T08:47:20.696Z,67.00
2019-04-04T08:48:24.914Z,67.10
2019-04-04T08:49:29.205Z,67.70
2019-04-04T08:50:33.595Z,67.70
2019-04-04T08:51:37.933Z,69.00
2019-04-04T08:52:42.263Z,67.70
2019-04-04T08:53:46.549Z,67.40
2019-04-04T08:54:50.983Z,68.10
2019-04-04T08:55:55.381Z,68.40
2019-04-04T08:56:59.555Z,68.30
2019-04-04T08:58:04.075Z,68.40
2019-04-04T08:59:08.455Z,68.50
2019-04-04T09:00:12.672Z,68.90
2019-04-04T09:01:16.991Z,68.30
2019-04-04T09:02:21.247Z,67.80
2019-04-04T09:03:25.448Z,68.20
2019-04-04T09:04:29.799Z,68.40
2019-04-04T09:05:34.059Z,68.30
2019-04-04T09:06:38.369Z,68.70
2019-04-04T09:07:42.677Z,68.80
2019-04-04T09:08:47.099Z,69.00
2019-04-04T09:09:51.635Z,69.00
2019-04-04T09:10:56.054Z,69.10
2019-04-04T09:12:00.513Z,69.20
2019-04-04T09:13:04.849Z,69.10
2019-04-04T09:14:09.123Z,69.40
2019-04-04T09:15:13.946Z,69.20
2019-04-04T09:16:18.491Z,69.30
2019-04-04T09:17:22.743Z,69.60
2019-04-04T09:18:27.115Z,70.40
2019-04-04T09:19:31.323Z,69.70
2019-04-04T09:20:35.625Z,69.00
2019-04-04T09:21:40.017Z,68.10
2019-04-04T09:22:44.383Z,67.80
2019-04-04T09:23:48.687Z,66.40
2019-04-04T09:24:53.039Z,66.30
2019-04-04T09:26:05.346Z,65.40
2019-04-04T09:27:03.467Z,65.10
2019-04-04T09:28:07.815Z,65.30
2019-04-04T09:29:12.084Z,65.70
2019-04-04T09:30:16.949Z,64.30
2019-04-04T09:31:21.115Z,63.50
2019-04-04T09:32:25.846Z,62.50
2019-04-04T09:33:30.081Z,62.60
2019-04-04T09:34:34.446Z,62.50
2019-04-04T09:35:38.756Z,62.10
2019-04-04T09:36:43.127Z,62.00
2019-04-04T09:37:47.439Z,63.00
2019-04-04T09:38:51.687Z,62.50
2019-04-04T09:39:55.947Z,62.10
2019-04-04T09:41:00.375Z,62.10
2019-04-04T09:42:04.660Z,62.10
2019-04-04T09:43:08.941Z,62.10
2019-04-04T09:44:13.282Z,62.50
2019-04-04T09:45:17.804Z,62.80
2019-04-04T09:46:21.979Z,62.70
2019-04-04T09:47:26.327Z,62.80
2019-04-04T09:48:30.687Z,62.30
2019-04-04T09:49:35.018Z,62.20
2019-04-04T09:50:39.221Z,61.90
2019-04-04T09:51:43.466Z,62.40
2019-04-04T09:52:47.645Z,61.50
2019-04-04T09:53:53.185Z,61.40
2019-04-04T09:54:58.124Z,61.60
2019-04-04T09:56:02.813Z,60.40
2019-04-04T09:57:07.181Z,59.40
2019-04-04T09:58:11.866Z,59.60
2019-04-04T09:59:16.101Z,60.00
2019-04-04T10:00:21.997Z,59.90
2019-04-04T10:01:26.342Z,58.60
2019-04-04T10:02:30.529Z,57.20
2019-04-04T10:03:34.707Z,56.30
2019-04-04T10:04:38.889Z,56.50
2019-04-04T10:05:43.127Z,56.20
2019-04-04T10:06:47.331Z,56.70
2019-04-04T10:07:51.641Z,56.50
2019-04-04T10:08:55.924Z,56.40
2019-04-04T10:10:00.208Z,56.10
2019-04-04T10:11:04.593Z,56.00
2019-04-04T10:12:08.783Z,56.60
2019-04-04T10:13:12.973Z,56.50
2019-04-04T10:14:17.285Z,56.60
2019-04-04T10:15:21.659Z,56.10
2019-04-04T10:16:26.090Z,56.40
2019-04-04T10:17:30.404Z,56.50
2019-04-04T10:18:34.718Z,57.00
2019-04-04T10:19:38.941Z,56.50
2019-04-04T10:20:43.102Z,55.90
2019-04-04T10:21:47.435Z,55.80
2019-04-04T10:22:51.607Z,55.40
2019-04-04T10:23:55.997Z,55.40
2019-04-04T10:25:00.275Z,55.60
2019-04-04T10:26:04.596Z,56.30
2019-04-04T10:27:08.970Z,56.10
2019-04-04T10:28:13.317Z,55.80
2019-04-04T10:29:17.656Z,55.80
2019-04-04T10:30:22.136Z,55.60
2019-04-04T10:31:26.472Z,55.50
2019-04-04T10:32:30.811Z,55.70
2019-04-04T10:33:34.946Z,55.90
2019-04-04T10:34:39.551Z,56.40
2019-04-04T10:35:43.871Z,57.20
2019-04-04T10:36:48.175Z,57.60
2019-04-04T10:37:52.483Z,57.50
2019-04-04T10:38:56.835Z,57.10
2019-04-04T10:40:01.081Z,56.70
2019-04-04T10:41:05.583Z,56.20
2019-04-04T10:42:09.867Z,56.50
2019-04-04T10:43:14.269Z,57.20
2019-04-04T10:44:18.522Z,56.60
2019-04-04T10:45:22.923Z,56.60
2019-04-04T10:46:27.168Z,56.60
2019-04-04T10:47:31.400Z,56.70
2019-04-04T10:48:35.804Z,57.10
2019-04-04T10:49:39.985Z,56.30
2019-04-04T10:50:44.249Z,55.80
2019-04-04T10:51:48.557Z,56.10
2019-04-04T10:52:52.904Z,55.90
2019-04-04T10:53:57.232Z,56.30
2019-04-04T10:55:01.857Z,56.60
2019-04-04T10:56:06.320Z,56.70
2019-04-04T10:57:10.478Z,56.60
2019-04-04T10:58:14.757Z,57.50
2019-04-04T10:59:19.070Z,57.80
2019-04-04T11:00:23.772Z,57.80
2019-04-04T11:01:27.981Z,56.80
2019-04-04T11:02:32.375Z,56.80
2019-04-04T11:03:36.755Z,57.10
2019-04-04T11:04:41.173Z,57.30
2019-04-04T11:05:45.384Z,58.30
2019-04-04T11:06:49.660Z,57.50
2019-04-04T11:07:56.649Z,57.30
2019-04-04T11:09:00.024Z,56.60
2019-04-04T11:10:04.736Z,56.60
2019-04-04T11:11:09.323Z,57.30
2019-04-04T11:12:13.560Z,56.70
2019-04-04T11:13:17.937Z,56.70
2019-04-04T11:14:25.075Z,56.20
2019-04-04T11:15:28.352Z,56.20
2019-04-04T11:16:32.654Z,56.50
2019-04-04T11:17:37.047Z,56.40
2019-04-04T11:18:41.247Z,56.60
2019-04-04T11:19:45.565Z,55.70
2019-04-04T11:20:49.962Z,55.30
2019-04-04T11:21:54.319Z,55.60
2019-04-04T11:22:58.736Z,55.70
2019-04-04T11:24:03.035Z,55.90
2019-04-04T11:25:07.296Z,56.10
2019-04-04T11:26:11.593Z,56.40
2019-04-04T11:27:17.515Z,56.30
2019-04-04T11:28:21.951Z,56.60
2019-04-04T11:29:26.251Z,56.60
2019-04-04T11:30:30.532Z,56.20
2019-04-04T11:31:34.791Z,56.40
2019-04-04T11:32:38.985Z,56.00
2019-04-04T11:33:43.724Z,55.60
2019-04-04T11:34:53.500Z,56.10
2019-04-04T11:35:53.941Z,56.50
2019-04-04T11:36:58.137Z,55.60
2019-04-04T11:38:02.537Z,55.70
2019-04-04T11:39:07.993Z,56.40
2019-04-04T11:40:12.972Z,56.80
2019-04-04T11:41:17.155Z,57.00
2019-04-04T11:42:21.507Z,56.80
2019-04-04T11:43:25.773Z,56.50
2019-04-04T11:44:30.873Z,56.40
2019-04-04T11:45:35.267Z,57.10
2019-04-04T11:46:39.459Z,55.80
2019-04-04T11:47:43.757Z,55.90
2019-04-04T11:48:49.036Z,55.70
2019-04-04T11:49:53.370Z,55.20
2019-04-04T11:50:57.605Z,54.80
2019-04-04T11:52:02.008Z,54.60
2019-04-04T11:53:06.319Z,55.00
2019-04-04T11:54:10.578Z,55.30
2019-04-04T11:55:14.948Z,55.70
2019-04-04T11:56:19.251Z,56.30
2019-04-04T11:57:23.986Z,56.70
2019-04-04T11:58:28.503Z,56.30
2019-04-04T11:59:32.872Z,56.70
2019-04-04T12:00:38.585Z,57.10
2019-04-04T12:01:43.199Z,58.20
2019-04-04T12:02:47.617Z,58.00
2019-04-04T12:03:51.814Z,58.60
2019-04-04T12:04:57.810Z,58.50
2019-04-04T12:06:02.352Z,59.10
2019-04-04T12:07:06.852Z,59.30
2019-04-04T12:08:11.232Z,59.70
2019-04-04T12:09:15.451Z,59.50
2019-04-04T12:10:19.752Z,59.90
2019-04-04T12:11:24.242Z,60.60
2019-04-04T12:12:28.590Z,60.60
2019-04-04T12:13:32.853Z,61.40
2019-04-04T12:14:37.147Z,61.70
2019-04-04T12:15:41.307Z,62.30
2019-04-04T12:16:45.668Z,62.50
2019-04-04T12:17:50.034Z,62.70
2019-04-04T12:18:54.271Z,62.60
2019-04-04T12:19:58.711Z,62.80
2019-04-04T12:21:03.203Z,63.40
2019-04-04T12:22:07.579Z,64.40
2019-04-04T12:23:11.901Z,63.60
2019-04-04T12:24:16.095Z,63.40
2019-04-04T12:25:20.303Z,63.20
2019-04-04T12:26:24.654Z,63.80
2019-04-04T12:27:29.036Z,63.80
2019-04-04T12:28:33.239Z,63.90
2019-04-04T12:29:37.588Z,64.20
2019-04-04T12:30:41.818Z,64.60
2019-04-04T12:31:46.155Z,64.10
2019-04-04T12:32:50.363Z,63.40
2019-04-04T12:33:54.539Z,64.70
2019-04-04T12:34:58.741Z,65.50
2019-04-04T12:36:03.129Z,64.00
2019-04-04T12:37:07.673Z,63.50
2019-04-04T12:38:11.922Z,64.00
2019-04-04T12:39:16.141Z,65.30
2019-04-04T12:40:21.407Z,65.30
2019-04-04T12:41:28.202Z,66.10
2019-04-04T12:42:32.067Z,66.00
2019-04-04T12:43:36.470Z,66.10
2019-04-04T12:44:40.814Z,66.40
2019-04-04T12:45:45.385Z,65.90
2019-04-04T12:46:49.547Z,66.40
2019-04-04T12:47:53.950Z,66.60
2019-04-04T12:48:58.317Z,66.30
2019-04-04T12:50:02.615Z,66.40
2019-04-04T12:51:07.283Z,66.80
2019-04-04T12:52:11.753Z,67.70
2019-04-04T12:53:16.024Z,66.50
2019-04-04T12:54:20.256Z,66.90
2019-04-04T12:55:24.572Z,66.30
2019-04-04T12:56:28.869Z,64.70
2019-04-04T12:57:33.154Z,65.20
2019-04-04T12:58:37.411Z,65.20
2019-04-04T12:59:41.814Z,64.70
2019-04-04T13:00:46.139Z,65.00
2019-04-04T13:01:50.484Z,64.70
2019-04-04T13:02:54.861Z,64.70
2019-04-04T13:03:59.198Z,66.00
2019-04-04T13:05:03.762Z,65.70
2019-04-04T13:06:07.931Z,66.20
2019-04-04T13:07:12.131Z,66.70
2019-04-04T13:08:16.512Z,67.00
2019-04-04T13:09:20.754Z,66.90
2019-04-04T13:10:33.044Z,67.80
2019-04-04T13:11:31.214Z,67.60
2019-04-04T13:12:35.548Z,67.50
2019-04-04T13:13:39.745Z,68.00
2019-04-04T13:14:43.977Z,67.70
2019-04-04T13:15:48.182Z,68.00
2019-04-04T13:16:52.349Z,67.90
2019-04-04T13:17:56.657Z,68.00
2019-04-04T13:19:00.958Z,68.10
2019-04-04T13:20:06.800Z,68.10
2019-04-04T13:21:11.053Z,68.10
2019-04-04T13:22:15.368Z,68.10
2019-04-04T13:23:19.615Z,66.70
2019-04-04T13:24:23.823Z,65.60
2019-04-04T13:25:28.025Z,65.70
2019-04-04T13:26:32.385Z,65.20
2019-04-04T13:27:36.663Z,63.80
2019-04-04T13:28:41.030Z,64.30
2019-04-04T13:29:45.216Z,64.10
2019-04-04T13:30:49.540Z,64.30
2019-04-04T13:31:53.875Z,63.00
2019-04-04T13:32:58.154Z,62.50
2019-04-04T13:34:02.509Z,63.70
2019-04-04T13:35:06.919Z,63.50
2019-04-04T13:36:11.116Z,63.20
2019-04-04T13:37:15.483Z,62.30
2019-04-04T13:38:19.687Z,62.70
2019-04-04T13:39:23.941Z,62.20
2019-04-04T13:40:28.146Z,62.00
2019-04-04T13:41:32.601Z,61.20
2019-04-04T13:42:36.871Z,62.00
2019-04-04T13:43:41.229Z,62.80
2019-04-04T13:44:45.409Z,62.70
2019-04-04T13:45:49.849Z,63.40
2019-04-04T13:46:54.115Z,63.50
2019-04-04T13:47:58.459Z,62.20
2019-04-04T13:49:02.840Z,62.70
2019-04-04T13:50:08.097Z,61.60
2019-04-04T13:51:12.474Z,62.70
2019-04-04T13:52:16.789Z,62.30